createdAt,value
2017-04-08T00:00:43.673Z,13.92
2017-04-08T00:01:43.941Z,13.9
2017-04-08T00:02:44.232Z,13.95
2017-04-08T00:03:43.911Z,13.92
2017-04-08T00:04:44.211Z,13.88
2017-04-08T00:05:43.559Z,13.9
2017-04-08T00:06:43.851Z,13.8
2017-04-08T00:07:43.827Z,13.9
2017-04-08T00:08:43.832Z,13.92
2017-04-08T00:09:43.792Z,13.95
2017-04-08T00:10:44.131Z,13.84
2017-04-08T00:11:44.064Z,13.85
2017-04-08T00:12:43.465Z,13.88
2017-04-08T00:13:43.744Z,13.81
2017-04-08T00:14:43.701Z,13.71
2017-04-08T00:15:43.698Z,13.71
2017-04-08T00:16:43.690Z,13.75
2017-04-08T00:17:43.962Z,13.8
2017-04-08T00:18:43.642Z,13.66
2017-04-08T00:19:43.915Z,13.85
2017-04-08T00:20:43.601Z,13.75
2017-04-08T00:21:43.880Z,13.67
2017-04-08T00:22:43.572Z,13.71
2017-04-08T00:23:43.851Z,13.72
2017-04-08T00:24:43.525Z,13.72
2017-04-08T00:25:43.821Z,13.67
2017-04-08T00:26:43.517Z,13.65
2017-04-08T00:27:43.792Z,13.7
2017-04-08T00:28:43.494Z,13.74
2017-04-08T00:29:43.752Z,13.75
2017-04-08T00:30:43.749Z,13.71
2017-04-08T00:31:43.710Z,13.7
2017-04-08T00:32:43.375Z,13.81
2017-04-08T00:33:43.383Z,13.71
2017-04-08T00:34:43.395Z,13.75
2017-04-08T00:35:43.632Z,13.71
2017-04-08T00:36:43.615Z,13.74
2017-04-08T00:37:43.609Z,13.78
2017-04-08T00:38:43.275Z,13.7
2017-04-08T00:39:43.563Z,13.67
2017-04-08T00:40:43.585Z,13.65
2017-04-08T00:41:43.531Z,13.63
2017-04-08T00:42:43.523Z,13.63
2017-04-08T00:43:43.492Z,13.65
2017-04-08T00:44:43.476Z,13.66
2017-04-08T00:45:43.444Z,13.62
2017-04-08T00:46:43.438Z,13.75
2017-04-08T00:47:43.436Z,13.6
2017-04-08T00:48:43.415Z,13.66
2017-04-08T00:49:43.459Z,13.53
2017-04-08T00:50:43.052Z,13.52
2017-04-08T00:51:43.425Z,13.53
2017-04-08T00:52:43.319Z,13.44
2017-04-08T00:53:42.998Z,13.44
2017-04-08T00:54:42.972Z,13.45
2017-04-08T00:55:42.952Z,13.31
2017-04-08T00:56:42.933Z,13.31
2017-04-08T00:57:43.230Z,13.35
2017-04-08T00:58:42.903Z,13.37
2017-04-08T00:59:43.192Z,13.29
2017-04-08T01:00:43.199Z,13.33
2017-04-08T01:01:42.872Z,13.38
2017-04-08T01:02:42.842Z,13.41
2017-04-08T01:03:42.811Z,13.45
2017-04-08T01:04:43.114Z,13.47
2017-04-08T01:05:42.460Z,13.33
2017-04-08T01:06:43.064Z,13.44
2017-04-08T01:07:43.045Z,13.41
2017-04-08T01:08:42.721Z,13.44
2017-04-08T01:09:42.994Z,13.48
2017-04-08T01:10:42.986Z,13.44
2017-04-08T01:11:42.980Z,13.47
2017-04-08T01:12:43.033Z,13.56
2017-04-08T01:13:42.942Z,13.6
2017-04-08T01:14:42.603Z,13.56
2017-04-08T01:15:42.580Z,13.53
2017-04-08T01:16:42.872Z,13.44
2017-04-08T01:17:42.543Z,13.42
2017-04-08T01:18:42.530Z,13.44
2017-04-08T01:19:42.834Z,13.41
2017-04-08T01:20:42.805Z,13.4
2017-04-08T01:21:42.787Z,13.11
2017-04-08T01:22:42.768Z,13.21
2017-04-08T01:23:42.733Z,13.21
2017-04-08T01:24:42.431Z,13.18
2017-04-08T01:25:42.401Z,13.18
2017-04-08T01:26:42.377Z,13.25
2017-04-08T01:27:42.361Z,13.21
2017-04-08T01:28:42.783Z,13.22
2017-04-08T01:29:42.321Z,13.35
2017-04-08T01:30:42.622Z,13.26
2017-04-08T01:31:42.329Z,13.26
2017-04-08T01:32:42.283Z,13.26
2017-04-08T01:33:42.265Z,13.31
2017-04-08T01:34:42.251Z,13.28
2017-04-08T01:35:42.531Z,13.21
2017-04-08T01:36:42.194Z,13.29
2017-04-08T01:37:42.479Z,13.26
2017-04-08T01:38:42.492Z,13.37
2017-04-08T01:39:42.141Z,13.22
2017-04-08T01:40:42.480Z,13.15
2017-04-08T01:41:41.795Z,13.22
2017-04-08T01:42:42.467Z,13.21
2017-04-08T01:43:42.395Z,13.21
2017-04-08T01:44:42.364Z,13.21
2017-04-08T01:45:42.342Z,13.25
2017-04-08T01:46:42.004Z,13.15
2017-04-08T01:47:42.002Z,13.16
2017-04-08T01:48:41.993Z,13.16
2017-04-08T01:49:41.952Z,13.11
2017-04-08T01:50:41.624Z,13.15
2017-04-08T01:51:42.233Z,13.23
2017-04-08T01:52:41.903Z,13.18
2017-04-08T01:53:41.882Z,13.19
2017-04-08T01:54:41.873Z,13.08
2017-04-08T01:55:42.169Z,13.04
2017-04-08T01:56:42.133Z,13.19
2017-04-08T01:57:42.125Z,13.19
2017-04-08T01:58:41.784Z,13.22
2017-04-08T01:59:42.078Z,13.16
2017-04-08T02:00:41.763Z,13.16
2017-04-08T02:01:42.032Z,13.1
2017-04-08T02:02:41.730Z,13.08
2017-04-08T02:03:41.697Z,13.19
2017-04-08T02:04:41.983Z,13.23
2017-04-08T02:05:41.360Z,13.22
2017-04-08T02:06:41.632Z,13.21
2017-04-08T02:07:41.313Z,13.21
2017-04-08T02:08:41.613Z,13.23
2017-04-08T02:09:41.582Z,13.14
2017-04-08T02:10:41.872Z,13.19
2017-04-08T02:11:41.539Z,13.14
2017-04-08T02:12:41.553Z,12.97
2017-04-08T02:13:41.521Z,13.01
2017-04-08T02:14:41.181Z,13.03
2017-04-08T02:15:41.477Z,13.01
2017-04-08T02:16:41.763Z,13
2017-04-08T02:17:41.127Z,13.03
2017-04-08T02:18:41.104Z,13.1
2017-04-08T02:19:41.703Z,13.11
2017-04-08T02:20:41.083Z,13.1
2017-04-08T02:21:41.367Z,13.03
2017-04-08T02:22:41.334Z,13.14
2017-04-08T02:23:41.326Z,13.06
2017-04-08T02:24:41.311Z,13.01
2017-04-08T02:25:40.992Z,13.03
2017-04-08T02:26:41.590Z,13.14
2017-04-08T02:27:41.270Z,12.96
2017-04-08T02:28:41.232Z,12.85
2017-04-08T02:29:41.213Z,12.83
2017-04-08T02:30:41.492Z,12.89
2017-04-08T02:31:41.475Z,12.79
2017-04-08T02:32:41.454Z,12.74
2017-04-08T02:33:41.452Z,12.78
2017-04-08T02:34:41.421Z,12.83
2017-04-08T02:35:41.422Z,12.74
2017-04-08T02:36:41.385Z,12.71
2017-04-08T02:37:41.053Z,12.82
2017-04-08T02:38:41.093Z,12.88
2017-04-08T02:39:41.333Z,12.85
2017-04-08T02:40:41.013Z,12.92
2017-04-08T02:41:41.323Z,12.86
2017-04-08T02:42:41.275Z,12.96
2017-04-08T02:43:41.273Z,12.92
2017-04-08T02:44:40.930Z,12.9
2017-04-08T02:45:41.213Z,12.88
2017-04-08T02:46:41.195Z,12.88
2017-04-08T02:47:41.173Z,12.88
2017-04-08T02:48:40.859Z,12.89
2017-04-08T02:49:41.154Z,12.97
2017-04-08T02:50:41.124Z,12.88
2017-04-08T02:51:41.133Z,12.86
2017-04-08T02:52:41.123Z,12.96
2017-04-08T02:53:41.066Z,13
2017-04-08T02:54:41.054Z,12.98
2017-04-08T02:55:41.022Z,12.98
2017-04-08T02:56:41.010Z,13
2017-04-08T02:57:40.983Z,12.94
2017-04-08T02:58:40.657Z,12.88
2017-04-08T02:59:40.654Z,12.97
2017-04-08T03:00:40.622Z,13.03
2017-04-08T03:01:40.968Z,13.01
2017-04-08T03:02:40.582Z,12.88
2017-04-08T03:03:40.574Z,12.92
2017-04-08T03:04:40.552Z,12.92
2017-04-08T03:05:40.522Z,12.86
2017-04-08T03:06:40.823Z,12.83
2017-04-08T03:07:40.235Z,12.85
2017-04-08T03:08:40.853Z,12.83
2017-04-08T03:09:40.765Z,12.86
2017-04-08T03:10:40.444Z,12.82
2017-04-08T03:11:40.725Z,12.76
2017-04-08T03:12:40.714Z,12.79
2017-04-08T03:13:40.383Z,12.83
2017-04-08T03:14:40.393Z,12.86
2017-04-08T03:15:40.339Z,12.78
2017-04-08T03:16:40.625Z,12.71
2017-04-08T03:17:40.309Z,12.79
2017-04-08T03:18:40.616Z,12.76
2017-04-08T03:19:40.574Z,12.89
2017-04-08T03:20:40.246Z,12.82
2017-04-08T03:21:40.249Z,12.85
2017-04-08T03:22:40.554Z,12.68
2017-04-08T03:23:40.504Z,12.79
2017-04-08T03:24:40.174Z,12.61
2017-04-08T03:25:39.854Z,12.52
2017-04-08T03:26:40.132Z,12.5
2017-04-08T03:27:40.113Z,12.49
2017-04-08T03:28:40.421Z,12.43
2017-04-08T03:29:40.382Z,12.39
2017-04-08T03:30:40.053Z,12.48
2017-04-08T03:31:40.033Z,12.46
2017-04-08T03:32:40.372Z,12.48
2017-04-08T03:33:40.307Z,12.5
2017-04-08T03:34:39.983Z,12.49
2017-04-08T03:35:40.265Z,12.55
2017-04-08T03:36:39.955Z,12.63
2017-04-08T03:37:39.615Z,12.64
2017-04-08T03:38:40.219Z,12.61
2017-04-08T03:39:39.894Z,12.68
2017-04-08T03:40:40.173Z,12.64
2017-04-08T03:41:39.533Z,12.73
2017-04-08T03:42:40.129Z,12.65
2017-04-08T03:43:39.813Z,12.57
2017-04-08T03:44:40.093Z,12.57
2017-04-08T03:45:39.784Z,12.61
2017-04-08T03:46:40.064Z,12.6
2017-04-08T03:47:39.423Z,12.68
2017-04-08T03:48:39.745Z,12.61
2017-04-08T03:49:40.001Z,12.58
2017-04-08T03:50:39.984Z,12.61
2017-04-08T03:51:39.963Z,12.5
2017-04-08T03:52:39.944Z,12.65
2017-04-08T03:53:39.944Z,12.53
2017-04-08T03:54:39.647Z,12.61
2017-04-08T03:55:39.585Z,12.52
2017-04-08T03:56:39.583Z,12.52
2017-04-08T03:57:39.853Z,12.52
2017-04-08T03:58:39.846Z,12.42
2017-04-08T03:59:39.836Z,12.5
2017-04-08T04:00:39.795Z,12.48
2017-04-08T04:01:39.162Z,12.53
2017-04-08T04:02:39.768Z,12.5
2017-04-08T04:03:39.744Z,12.5
2017-04-08T04:04:39.720Z,12.5
2017-04-08T04:05:39.491Z,12.53
2017-04-08T04:06:39.687Z,12.55
2017-04-08T04:07:39.354Z,12.52
2017-04-08T04:08:39.643Z,12.53
2017-04-08T04:09:39.326Z,12.5
2017-04-08T04:10:39.292Z,12.46
2017-04-08T04:11:39.604Z,12.46
2017-04-08T04:12:39.560Z,12.46
2017-04-08T04:13:39.238Z,12.46
2017-04-08T04:14:39.221Z,12.46
2017-04-08T04:15:39.254Z,12.48
2017-04-08T04:16:39.183Z,12.48
2017-04-08T04:17:39.162Z,12.49
2017-04-08T04:18:39.144Z,12.48
2017-04-08T04:19:39.122Z,12.5
2017-04-08T04:20:39.113Z,12.57
2017-04-08T04:21:39.393Z,12.53
2017-04-08T04:22:39.073Z,12.6
2017-04-08T04:23:38.788Z,12.53
2017-04-08T04:24:38.724Z,12.5
2017-04-08T04:25:39.020Z,12.48
2017-04-08T04:26:39.302Z,12.48
2017-04-08T04:27:38.982Z,12.43
2017-04-08T04:28:39.273Z,12.45
2017-04-08T04:29:38.944Z,12.49
2017-04-08T04:30:38.921Z,12.46
2017-04-08T04:31:38.891Z,12.42
2017-04-08T04:32:38.871Z,12.45
2017-04-08T04:33:38.554Z,12.32
2017-04-08T04:34:39.148Z,12.42
2017-04-08T04:35:38.803Z,12.4
2017-04-08T04:36:38.813Z,12.48
2017-04-08T04:37:39.082Z,12.43
2017-04-08T04:38:38.768Z,12.45
2017-04-08T04:39:38.752Z,12.35
2017-04-08T04:40:39.046Z,12.42
2017-04-08T04:41:38.709Z,12.4
2017-04-08T04:42:38.692Z,12.39
2017-04-08T04:43:38.502Z,12.32
2017-04-08T04:44:38.643Z,12.34
2017-04-08T04:45:38.628Z,12.37
2017-04-08T04:46:38.627Z,12.32
2017-04-08T04:47:38.943Z,12.4
2017-04-08T04:48:38.582Z,12.39
2017-04-08T04:49:38.594Z,12.35
2017-04-08T04:50:38.843Z,12.32
2017-04-08T04:51:38.834Z,12.35
2017-04-08T04:52:38.522Z,12.39
2017-04-08T04:53:38.174Z,12.37
2017-04-08T04:54:38.789Z,12.32
2017-04-08T04:55:38.445Z,12.39
2017-04-08T04:56:38.736Z,12.39
2017-04-08T04:57:38.405Z,12.42
2017-04-08T04:58:38.695Z,12.45
2017-04-08T04:59:38.352Z,12.3
2017-04-08T05:00:38.683Z,12.37
2017-04-08T05:01:38.625Z,12.46
2017-04-08T05:02:38.672Z,12.32
2017-04-08T05:03:38.605Z,12.31
2017-04-08T05:04:38.583Z,12.32
2017-04-08T05:05:38.593Z,12.27
2017-04-08T05:06:38.576Z,12.31
2017-04-08T05:07:38.216Z,12.45
2017-04-08T05:08:38.489Z,12.39
2017-04-08T05:09:38.163Z,12.34
2017-04-08T05:10:38.142Z,12.42
2017-04-08T05:11:38.434Z,12.37
2017-04-08T05:12:38.105Z,12.45
2017-04-08T05:13:37.782Z,12.45
2017-04-08T05:14:38.069Z,12.43
2017-04-08T05:15:37.749Z,12.49
2017-04-08T05:16:38.332Z,12.46
2017-04-08T05:17:38.008Z,12.45
2017-04-08T05:18:37.682Z,12.46
2017-04-08T05:19:38.277Z,12.39
2017-04-08T05:20:38.261Z,12.42
2017-04-08T05:21:38.243Z,12.46
2017-04-08T05:22:38.222Z,12.46
2017-04-08T05:23:38.223Z,12.46
2017-04-08T05:24:38.195Z,12.48
2017-04-08T05:25:37.546Z,12.46
2017-04-08T05:26:37.842Z,12.43
2017-04-08T05:27:38.133Z,12.42
2017-04-08T05:28:37.814Z,12.52
2017-04-08T05:29:38.081Z,12.4
2017-04-08T05:30:37.771Z,12.4
2017-04-08T05:31:37.751Z,12.53
2017-04-08T05:32:38.043Z,12.49
2017-04-08T05:33:38.012Z,12.5
2017-04-08T05:34:38.104Z,12.49
2017-04-08T05:35:37.965Z,12.48
2017-04-08T05:36:37.653Z,12.48
2017-04-08T05:37:37.639Z,12.39
2017-04-08T05:38:37.928Z,12.46
2017-04-08T05:39:37.595Z,12.45
2017-04-08T05:40:37.275Z,12.49
2017-04-08T05:41:37.247Z,12.46
2017-04-08T05:42:37.855Z,12.42
2017-04-08T05:43:37.843Z,12.42
2017-04-08T05:44:37.808Z,12.42
2017-04-08T05:45:37.787Z,12.43
2017-04-08T05:46:37.762Z,12.52
2017-04-08T05:47:37.511Z,12.43
2017-04-08T05:48:37.422Z,12.31
2017-04-08T05:49:37.401Z,12.34
2017-04-08T05:50:37.385Z,12.39
2017-04-08T05:51:37.684Z,12.35
2017-04-08T05:52:37.361Z,12.43
2017-04-08T05:53:37.646Z,12.37
2017-04-08T05:54:37.611Z,12.53
2017-04-08T05:55:37.026Z,12.5
2017-04-08T05:56:37.567Z,12.45
2017-04-08T05:57:37.574Z,12.55
2017-04-08T05:58:37.558Z,12.53
2017-04-08T05:59:37.549Z,12.53
2017-04-08T06:00:37.495Z,12.53
2017-04-08T06:01:37.501Z,12.6
2017-04-08T06:02:37.152Z,12.57
2017-04-08T06:03:37.536Z,12.61
2017-04-08T06:04:37.115Z,12.61
2017-04-08T06:05:37.123Z,12.58
2017-04-08T06:06:37.384Z,12.6
2017-04-08T06:07:37.377Z,12.64
2017-04-08T06:08:36.732Z,12.64
2017-04-08T06:09:37.342Z,12.74
2017-04-08T06:10:37.013Z,12.68
2017-04-08T06:11:37.333Z,12.68
2017-04-08T06:12:36.962Z,12.7
2017-04-08T06:13:37.310Z,12.71
2017-04-08T06:14:37.249Z,12.68
2017-04-08T06:15:36.930Z,12.67
2017-04-08T06:16:37.213Z,12.65
2017-04-08T06:17:36.882Z,12.57
2017-04-08T06:18:36.862Z,12.65
2017-04-08T06:19:36.880Z,12.61
2017-04-08T06:20:36.519Z,12.57
2017-04-08T06:21:37.159Z,12.5
2017-04-08T06:22:37.122Z,12.53
2017-04-08T06:23:37.061Z,12.52
2017-04-08T06:24:36.731Z,12.65
2017-04-08T06:25:37.047Z,12.67
2017-04-08T06:26:36.385Z,12.68
2017-04-08T06:27:36.701Z,12.65
2017-04-08T06:28:36.660Z,12.6
2017-04-08T06:29:36.652Z,12.53
2017-04-08T06:30:36.920Z,12.53
2017-04-08T06:31:36.603Z,12.6
2017-04-08T06:32:36.891Z,12.63
2017-04-08T06:33:36.573Z,12.74
2017-04-08T06:34:36.552Z,12.64
2017-04-08T06:35:36.822Z,12.71
2017-04-08T06:36:36.211Z,12.76
2017-04-08T06:37:36.789Z,12.71
2017-04-08T06:38:36.789Z,12.81
2017-04-08T06:39:36.459Z,12.68
2017-04-08T06:40:36.432Z,12.83
2017-04-08T06:41:36.418Z,12.81
2017-04-08T06:42:36.691Z,12.76
2017-04-08T06:43:36.380Z,12.81
2017-04-08T06:44:36.361Z,12.78
2017-04-08T06:45:36.332Z,12.7
2017-04-08T06:46:36.321Z,12.78
2017-04-08T06:47:36.323Z,12.7
2017-04-08T06:48:36.309Z,12.85
2017-04-08T06:49:36.263Z,12.89
2017-04-08T06:50:36.253Z,12.71
2017-04-08T06:51:36.562Z,12.76
2017-04-08T06:52:36.201Z,12.76
2017-04-08T06:53:36.492Z,12.89
2017-04-08T06:54:36.482Z,12.83
2017-04-08T06:55:36.465Z,12.85
2017-04-08T06:56:36.455Z,12.94
2017-04-08T06:57:36.431Z,12.96
2017-04-08T06:58:36.415Z,12.96
2017-04-08T06:59:36.404Z,13
2017-04-08T07:00:36.381Z,12.94
2017-04-08T07:01:36.043Z,12.96
2017-04-08T07:02:36.332Z,12.96
2017-04-08T07:03:36.012Z,13.01
2017-04-08T07:04:36.303Z,13.01
2017-04-08T07:05:36.282Z,13.03
2017-04-08T07:06:36.259Z,12.98
2017-04-08T07:07:36.240Z,12.98
2017-04-08T07:08:36.218Z,12.97
2017-04-08T07:09:35.904Z,13.03
2017-04-08T07:10:36.176Z,13.01
2017-04-08T07:11:36.178Z,13.1
2017-04-08T07:12:36.146Z,13.1
2017-04-08T07:13:36.153Z,13.08
2017-04-08T07:14:36.122Z,13.08
2017-04-08T07:15:35.468Z,13.14
2017-04-08T07:16:36.064Z,13.03
2017-04-08T07:17:35.746Z,13.11
2017-04-08T07:18:35.730Z,13.03
2017-04-08T07:19:36.022Z,12.96
2017-04-08T07:20:35.692Z,13.04
2017-04-08T07:21:35.984Z,13.19
2017-04-08T07:22:35.951Z,13.18
2017-04-08T07:23:35.629Z,13.21
2017-04-08T07:24:35.615Z,13.22
2017-04-08T07:25:35.904Z,13.19
2017-04-08T07:26:35.581Z,13.22
2017-04-08T07:27:35.332Z,13.29
2017-04-08T07:28:35.540Z,13.26
2017-04-08T07:29:35.817Z,13.28
2017-04-08T07:30:35.804Z,13.26
2017-04-08T07:31:35.808Z,13.26
2017-04-08T07:32:35.775Z,13.26
2017-04-08T07:33:35.592Z,13.38
2017-04-08T07:34:35.751Z,13.33
2017-04-08T07:35:35.122Z,13.35
2017-04-08T07:36:35.691Z,13.42
2017-04-08T07:37:35.452Z,13.45
2017-04-08T07:38:35.654Z,13.48
2017-04-08T07:39:35.644Z,13.52
2017-04-08T07:40:35.323Z,13.56
2017-04-08T07:41:35.107Z,13.6
2017-04-08T07:42:35.293Z,13.59
2017-04-08T07:43:35.316Z,13.57
2017-04-08T07:44:35.242Z,13.6
2017-04-08T07:45:34.927Z,13.57
2017-04-08T07:46:35.223Z,13.41
2017-04-08T07:47:35.500Z,13.31
2017-04-08T07:48:35.192Z,13.37
2017-04-08T07:49:35.462Z,13.23
2017-04-08T07:50:35.473Z,13.25
2017-04-08T07:51:35.122Z,13.35
2017-04-08T07:52:35.412Z,13.48
2017-04-08T07:53:35.103Z,13.47
2017-04-08T07:54:35.384Z,13.56
2017-04-08T07:55:34.870Z,13.57
2017-04-08T07:56:35.331Z,13.63
2017-04-08T07:57:35.022Z,13.65
2017-04-08T07:58:35.013Z,13.55
2017-04-08T07:59:34.984Z,13.75
2017-04-08T08:00:34.982Z,13.81
2017-04-08T08:01:35.242Z,13.81
2017-04-08T08:02:34.916Z,13.82
2017-04-08T08:03:35.204Z,13.93
2017-04-08T08:04:35.193Z,13.93
2017-04-08T08:05:34.992Z,13.93
2017-04-08T08:06:35.162Z,13.95
2017-04-08T08:07:35.152Z,14
2017-04-08T08:08:35.124Z,14.07
2017-04-08T08:09:34.831Z,13.99
2017-04-08T08:10:35.099Z,14.14
2017-04-08T08:11:34.763Z,14.15
2017-04-08T08:12:35.044Z,14.15
2017-04-08T08:13:34.432Z,14.11
2017-04-08T08:14:34.722Z,14.15
2017-04-08T08:15:35.003Z,14.18
2017-04-08T08:16:34.985Z,14.14
2017-04-08T08:17:34.654Z,14.14
2017-04-08T08:18:34.642Z,14.13
2017-04-08T08:19:34.923Z,14.14
2017-04-08T08:20:34.676Z,14.14
2017-04-08T08:21:34.902Z,14.18
2017-04-08T08:22:34.864Z,14.15
2017-04-08T08:23:34.879Z,14.13
2017-04-08T08:24:34.835Z,14.18
2017-04-08T08:25:34.512Z,14.18
2017-04-08T08:26:34.817Z,14.26
2017-04-08T08:27:34.476Z,14.35
2017-04-08T08:28:34.765Z,14.39
2017-04-08T08:29:34.765Z,14.38
2017-04-08T08:30:34.436Z,14.42
2017-04-08T08:31:34.725Z,14.47
2017-04-08T08:32:34.711Z,14.54
2017-04-08T08:33:34.373Z,14.54
2017-04-08T08:34:34.362Z,14.65
2017-04-08T08:35:34.043Z,14.58
2017-04-08T08:36:34.655Z,14.63
2017-04-08T08:37:34.634Z,14.66
2017-04-08T08:38:34.604Z,14.72
2017-04-08T08:39:34.594Z,14.73
2017-04-08T08:40:34.562Z,14.69
2017-04-08T08:41:34.250Z,14.69
2017-04-08T08:42:34.544Z,14.82
2017-04-08T08:43:34.212Z,14.85
2017-04-08T08:44:34.195Z,14.77
2017-04-08T08:45:34.183Z,14.7
2017-04-08T08:46:34.462Z,14.53
2017-04-08T08:47:34.163Z,14.58
2017-04-08T08:48:34.144Z,14.66
2017-04-08T08:49:34.133Z,14.7
2017-04-08T08:50:34.092Z,14.7
2017-04-08T08:51:34.374Z,14.69
2017-04-08T08:52:34.353Z,14.73
2017-04-08T08:53:34.354Z,14.6
2017-04-08T08:54:34.024Z,14.55
2017-04-08T08:55:34.003Z,14.47
2017-04-08T08:56:34.315Z,14.6
2017-04-08T08:57:33.967Z,14.57
2017-04-08T08:58:34.274Z,14.48
2017-04-08T08:59:34.233Z,14.6
2017-04-08T09:00:33.933Z,14.63
2017-04-08T09:01:34.231Z,14.62
2017-04-08T09:02:34.197Z,14.63
2017-04-08T09:03:34.193Z,14.63
2017-04-08T09:04:34.165Z,14.68
2017-04-08T09:05:34.156Z,14.77
2017-04-08T09:06:33.845Z,14.94
2017-04-08T09:07:34.123Z,14.96
2017-04-08T09:08:33.795Z,15.09
2017-04-08T09:09:34.155Z,15.1
2017-04-08T09:10:34.071Z,15.14
2017-04-08T09:11:33.743Z,15.28
2017-04-08T09:12:34.022Z,15.35
2017-04-08T09:13:34.025Z,15.44
2017-04-08T09:14:34.014Z,15.5
2017-04-08T09:15:33.685Z,15.52
2017-04-08T09:16:33.974Z,15.53
2017-04-08T09:17:33.975Z,15.49
2017-04-08T09:18:33.620Z,15.46
2017-04-08T09:19:34.025Z,15.49
2017-04-08T09:20:33.900Z,15.52
2017-04-08T09:21:33.595Z,15.54
2017-04-08T09:22:33.882Z,15.57
2017-04-08T09:23:33.585Z,15.71
2017-04-08T09:24:33.841Z,15.82
2017-04-08T09:25:33.844Z,15.83
2017-04-08T09:26:33.907Z,15.8
2017-04-08T09:27:33.492Z,15.71
2017-04-08T09:28:33.763Z,15.67
2017-04-08T09:29:33.807Z,15.65
2017-04-08T09:30:33.769Z,15.71
2017-04-08T09:31:33.732Z,15.71
2017-04-08T09:32:33.778Z,15.68
2017-04-08T09:33:33.705Z,15.85
2017-04-08T09:34:33.366Z,15.68
2017-04-08T09:35:33.728Z,15.75
2017-04-08T09:36:33.654Z,15.71
2017-04-08T09:37:33.688Z,15.8
2017-04-08T09:38:33.332Z,15.8
2017-04-08T09:39:33.354Z,15.77
2017-04-08T09:40:32.958Z,15.68
2017-04-08T09:41:33.262Z,15.76
2017-04-08T09:42:33.232Z,15.68
2017-04-08T09:43:33.554Z,15.75
2017-04-08T09:44:33.586Z,15.79
2017-04-08T09:45:33.612Z,15.71
2017-04-08T09:46:33.215Z,15.68
2017-04-08T09:47:33.476Z,15.71
2017-04-08T09:48:33.445Z,15.75
2017-04-08T09:49:33.433Z,15.65
2017-04-08T09:50:33.469Z,15.58
2017-04-08T09:51:33.445Z,15.67
2017-04-08T09:52:33.494Z,15.76
2017-04-08T09:53:33.362Z,15.76
2017-04-08T09:54:33.444Z,15.83
2017-04-08T09:55:33.382Z,15.79
2017-04-08T09:56:33.375Z,15.72
2017-04-08T09:57:32.987Z,15.76
2017-04-08T09:58:33.325Z,15.79
2017-04-08T09:59:33.252Z,15.76
2017-04-08T10:00:33.259Z,15.75
2017-04-08T10:01:32.627Z,15.82
2017-04-08T10:02:32.605Z,15.85
2017-04-08T10:03:32.903Z,15.79
2017-04-08T10:04:33.189Z,15.71
2017-04-08T10:05:33.222Z,15.82
2017-04-08T10:06:32.847Z,15.82
2017-04-08T10:07:33.170Z,15.77
2017-04-08T10:08:32.872Z,15.71
2017-04-08T10:09:33.155Z,15.82
2017-04-08T10:10:33.099Z,15.85
2017-04-08T10:11:32.785Z,15.8
2017-04-08T10:12:33.143Z,15.77
2017-04-08T10:13:32.726Z,15.94
2017-04-08T10:14:32.755Z,15.9
2017-04-08T10:15:33.004Z,15.83
2017-04-08T10:16:32.699Z,15.75
2017-04-08T10:17:33.042Z,15.76
2017-04-08T10:18:32.644Z,15.9
2017-04-08T10:19:32.964Z,16.05
2017-04-08T10:20:32.623Z,16.13
2017-04-08T10:21:32.612Z,16.21
2017-04-08T10:22:32.925Z,16.26
2017-04-08T10:23:32.944Z,16.21
2017-04-08T10:24:32.885Z,16.38
2017-04-08T10:25:32.864Z,16.34
2017-04-08T10:26:32.531Z,16.43
2017-04-08T10:27:32.814Z,16.5
2017-04-08T10:28:32.827Z,16.08
2017-04-08T10:29:32.792Z,16.28
2017-04-08T10:30:32.472Z,16.35
2017-04-08T10:31:32.452Z,16.35
2017-04-08T10:32:32.733Z,16.6
2017-04-08T10:33:32.426Z,16.57
2017-04-08T10:34:32.413Z,16.48
2017-04-08T10:35:32.719Z,16.43
2017-04-08T10:36:32.683Z,16.56
2017-04-08T10:37:32.679Z,16.34
2017-04-08T10:38:32.653Z,16.38
2017-04-08T10:39:32.622Z,16.51
2017-04-08T10:40:32.612Z,16.5
2017-04-08T10:41:32.298Z,16.27
2017-04-08T10:42:32.590Z,16.38
2017-04-08T10:43:32.271Z,16.39
2017-04-08T10:44:32.554Z,16.6
2017-04-08T10:45:32.554Z,16.72
2017-04-08T10:46:32.538Z,16.91
2017-04-08T10:47:32.514Z,16.94
2017-04-08T10:48:32.512Z,16.94
2017-04-08T10:49:32.486Z,17.06
2017-04-08T10:50:32.481Z,17.14
2017-04-08T10:51:32.443Z,17.24
2017-04-08T10:52:32.124Z,17.22
2017-04-08T10:53:32.423Z,17.15
2017-04-08T10:54:32.441Z,17.16
2017-04-08T10:55:32.393Z,17.12
2017-04-08T10:56:32.394Z,16.97
2017-04-08T10:57:32.366Z,16.94
2017-04-08T10:58:32.349Z,17.06
2017-04-08T10:59:32.025Z,16.96
2017-04-08T11:00:32.006Z,16.82
2017-04-08T11:01:32.001Z,16.72
2017-04-08T11:02:32.293Z,16.83
2017-04-08T11:03:32.284Z,16.91
2017-04-08T11:04:32.253Z,17.01
2017-04-08T11:05:32.241Z,17.14
2017-04-08T11:06:31.934Z,17.12
2017-04-08T11:07:31.904Z,17.27
2017-04-08T11:08:31.890Z,17.26
2017-04-08T11:09:32.195Z,17.18
2017-04-08T11:10:31.904Z,17.18
2017-04-08T11:11:32.157Z,17.21
2017-04-08T11:12:32.140Z,17.15
2017-04-08T11:13:31.533Z,17.12
2017-04-08T11:14:32.136Z,16.94
2017-04-08T11:15:31.804Z,17.06
2017-04-08T11:16:31.782Z,16.91
2017-04-08T11:17:32.076Z,16.72
2017-04-08T11:18:31.765Z,16.35
2017-04-08T11:19:31.752Z,16.21
2017-04-08T11:20:31.733Z,16.1
2017-04-08T11:21:31.711Z,16.21
2017-04-08T11:22:31.688Z,16.36
2017-04-08T11:23:31.683Z,16.51
2017-04-08T11:24:31.668Z,16.63
2017-04-08T11:25:31.973Z,16.74
2017-04-08T11:26:32.005Z,16.68
2017-04-08T11:27:31.612Z,16.63
2017-04-08T11:28:31.624Z,16.57
2017-04-08T11:29:31.594Z,16.35
2017-04-08T11:30:31.581Z,16.28
2017-04-08T11:31:31.607Z,16.21
2017-04-08T11:32:31.873Z,16.24
2017-04-08T11:33:31.641Z,16.48
2017-04-08T11:34:31.516Z,16.61
2017-04-08T11:35:31.585Z,16.82
2017-04-08T11:36:31.861Z,17.08
2017-04-08T11:37:31.854Z,17.08
2017-04-08T11:38:31.875Z,17.18
2017-04-08T11:39:31.555Z,17.06
2017-04-08T11:40:31.443Z,17.08
2017-04-08T11:41:31.717Z,17.06
2017-04-08T11:42:31.734Z,16.87
2017-04-08T11:43:31.691Z,16.72
2017-04-08T11:44:31.132Z,16.61
2017-04-08T11:45:31.369Z,16.28
2017-04-08T11:46:31.647Z,16.36
2017-04-08T11:47:31.015Z,16.46
2017-04-08T11:48:31.672Z,16.63
2017-04-08T11:49:31.652Z,16.83
2017-04-08T11:50:31.622Z,17.05
2017-04-08T11:51:31.562Z,17.15
2017-04-08T11:52:31.602Z,17.14
2017-04-08T11:53:31.643Z,17.31
2017-04-08T11:54:31.582Z,17.15
2017-04-08T11:55:31.564Z,17.29
2017-04-08T11:56:31.193Z,17.19
2017-04-08T11:57:31.534Z,17.14
2017-04-08T11:58:31.459Z,17.19
2017-04-08T11:59:31.505Z,17.24
2017-04-08T12:00:31.484Z,17.27
2017-04-08T12:01:31.438Z,17.34
2017-04-08T12:02:31.092Z,17.31
2017-04-08T12:03:31.442Z,17.08
2017-04-08T12:04:31.382Z,16.81
2017-04-08T12:05:31.364Z,16.81
2017-04-08T12:06:31.454Z,16.83
2017-04-08T12:07:31.010Z,16.94
2017-04-08T12:08:31.380Z,17.05
2017-04-08T12:09:31.388Z,16.97
2017-04-08T12:10:30.965Z,17.08
2017-04-08T12:11:30.954Z,17.19
2017-04-08T12:12:30.942Z,17.21
2017-04-08T12:13:30.945Z,17.18
2017-04-08T12:14:30.904Z,17.3
2017-04-08T12:15:31.212Z,17.16
2017-04-08T12:16:30.881Z,17.22
2017-04-08T12:17:30.883Z,17.33
2017-04-08T12:18:30.853Z,17.42
2017-04-08T12:19:31.153Z,17.44
2017-04-08T12:20:30.815Z,17.45
2017-04-08T12:21:31.143Z,17.29
2017-04-08T12:22:30.792Z,17.36
2017-04-08T12:23:31.082Z,17.48
2017-04-08T12:24:31.072Z,17.75
2017-04-08T12:25:30.812Z,17.89
2017-04-08T12:26:30.739Z,17.93
2017-04-08T12:27:31.028Z,18.12
2017-04-08T12:28:30.705Z,18.2
2017-04-08T12:29:31.003Z,18.3
2017-04-08T12:30:31.007Z,18.07
2017-04-08T12:31:30.970Z,18.04
2017-04-08T12:32:30.652Z,17.89
2017-04-08T12:33:30.940Z,17.86
2017-04-08T12:34:30.952Z,17.86
2017-04-08T12:35:30.925Z,17.96
2017-04-08T12:36:30.273Z,17.98
2017-04-08T12:37:30.882Z,17.75
2017-04-08T12:38:30.872Z,17.45
2017-04-08T12:39:30.863Z,17.33
2017-04-08T12:40:30.222Z,17.46
2017-04-08T12:41:30.824Z,17.45
2017-04-08T12:42:30.814Z,17.34
2017-04-08T12:43:30.796Z,17.27
2017-04-08T12:44:30.780Z,17.16
2017-04-08T12:45:30.456Z,17.19
2017-04-08T12:46:30.762Z,17.14
2017-04-08T12:47:30.721Z,17.11
2017-04-08T12:48:30.726Z,17.09
2017-04-08T12:49:30.404Z,16.9
2017-04-08T12:50:30.400Z,17.06
2017-04-08T12:51:30.682Z,17
2017-04-08T12:52:30.352Z,17.11
2017-04-08T12:53:30.347Z,17.18
2017-04-08T12:54:30.324Z,17.21
2017-04-08T12:55:30.612Z,17.21